Time;durP1;ratioP1;P1;durP2;ratioP2;P2;SDS_P1;SDS_P2;PMS_P1;PMS_P2;Temp;Humidity;BMP_temperature;BMP_pressure;BME280_temperature;BME280_humidity;BME280_pressure;Samples;Min_cycle;Max_cycle;Signal;HPM_P1;HPM_P2
2020/12/11 00:00:18;;;;;;;51.83;26.70;;;;;;;0.41;89.50;100273.41;5020378;28;20186;-70
2020/12/11 00:02:44;;;;;;;61.87;25.20;;;;;;;0.38;89.70;100277.50;5020529;28;20414;-70
2020/12/11 00:05:09;;;;;;;53.50;25.23;;;;;;;0.40;89.85;100271.63;5020764;28;20424;-70
2020/12/11 00:07:41;;;;;;;58.97;25.63;;;;;;;0.37;89.29;100275.78;5020242;28;20222;-70
2020/12/11 00:10:08;;;;;;;61.83;27.00;;;;;;;0.46;89.76;100276.16;5020207;28;20229;-70
2020/12/11 00:12:34;;;;;;;57.80;25.63;;;;;;;0.53;89.47;100272.16;5020730;28;20440;-71
2020/12/11 00:15:00;;;;;;;55.37;26.47;;;;;;;0.47;89.63;100267.66;5020155;28;20430;-70
2020/12/11 00:17:26;;;;;;;54.30;25.73;;;;;;;0.42;89.58;100264.00;5020312;28;20178;-70
2020/12/11 00:19:53;;;;;;;64.27;26.53;;;;;;;0.42;90.05;100258.88;5020329;28;20421;-70
2020/12/11 00:22:18;;;;;;;62.67;25.53;;;;;;;0.50;89.36;100257.50;5020100;28;20502;-69
2020/12/11 00:24:43;;;;;;;64.50;27.57;;;;;;;0.59;89.34;100250.22;5019811;28;20568;-69
2020/12/11 00:27:09;;;;;;;54.30;24.70;;;;;;;0.41;89.43;100246.91;5020322;28;20182;-69
2020/12/11 00:29:34;;;;;;;56.67;24.87;;;;;;;0.21;90.41;100238.34;5019831;28;20179;-71
2020/12/11 00:32:06;;;;;;;61.73;25.80;;;;;;;0.42;90.19;100240.94;5019226;28;20254;-71
2020/12/11 00:34:32;;;;;;;58.63;28.00;;;;;;;0.47;89.90;100236.88;5020298;28;20182;-71
2020/12/11 00:36:58;;;;;;;62.47;24.80;;;;;;;0.61;89.46;100234.88;5019888;28;20414;-70
2020/12/11 00:39:23;;;;;;;63.77;25.70;;;;;;;0.55;89.76;100229.50;5019754;28;20210;-71
2020/12/11 00:41:49;;;;;;;62.97;27.60;;;;;;;0.51;89.76;100218.25;5020664;28;20236;-71
2020/12/11 00:44:14;;;;;;;57.20;24.53;;;;;;;0.58;89.36;100212.56;5019739;28;20182;-74
2020/12/11 00:46:39;;;;;;;65.80;29.30;;;;;;;0.45;90.32;100228.25;5019793;28;20278;-72
2020/12/11 00:49:05;;;;;;;63.90;29.80;;;;;;;0.50;90.07;100219.03;5019875;28;20293;-74
2020/12/11 00:51:30;;;;;;;63.67;27.43;;;;;;;0.54;90.18;100212.38;5019569;28;20266;-73
2020/12/11 00:53:55;;;;;;;65.50;28.60;;;;;;;0.60;89.82;100210.94;5019574;28;20249;-74
2020/12/11 00:56:22;;;;;;;65.20;28.80;;;;;;;0.39;90.38;100213.47;5019802;28;20452;-74
2020/12/11 00:58:48;;;;;;;75.80;30.07;;;;;;;0.38;90.05;100209.19;5019395;28;20615;-75
2020/12/11 01:01:13;;;;;;;68.57;27.90;;;;;;;0.54;90.06;100213.22;5019469;28;20418;-73
2020/12/11 01:03:38;;;;;;;71.17;30.00;;;;;;;0.48;89.54;100200.16;5019683;28;20213;-74
2020/12/11 01:06:03;;;;;;;76.90;30.77;;;;;;;0.28;90.83;100202.75;5019352;28;20457;-74
2020/12/11 01:08:29;;;;;;;75.70;31.30;;;;;;;0.38;90.19;100200.59;5019167;28;20260;-71
2020/12/11 01:10:54;;;;;;;64.23;27.77;;;;;;;0.47;89.96;100200.97;5019568;28;20175;-72
2020/12/11 01:13:19;;;;;;;62.90;27.10;;;;;;;0.50;89.99;100201.09;5019174;28;20430;-72
2020/12/11 01:15:45;;;;;;;71.50;29.60;;;;;;;0.20;90.41;100199.00;5019119;28;20209;-73
2020/12/11 01:18:10;;;;;;;69.13;28.90;;;;;;;0.21;91.00;100192.19;5019508;28;20271;-72
2020/12/11 01:20:35;;;;;;;76.33;29.70;;;;;;;0.20;91.04;100186.19;5018279;28;20549;-72
2020/12/11 01:23:01;;;;;;;65.33;25.03;;;;;;;0.12;90.64;100187.53;5019144;28;20185;-71
2020/12/11 01:25:26;;;;;;;72.40;31.23;;;;;;;0.31;91.23;100184.06;5019321;28;20221;-72
2020/12/11 01:27:51;;;;;;;74.33;30.20;;;;;;;0.14;91.40;100181.66;5018791;28;20207;-72
2020/12/11 01:30:16;;;;;;;75.53;30.97;;;;;;;0.30;91.12;100172.94;5018893;28;20178;-72
2020/12/11 01:32:42;;;;;;;77.20;32.13;;;;;;;0.41;90.47;100165.69;5019199;28;20175;-72
2020/12/11 01:35:07;;;;;;;67.67;29.60;;;;;;;0.56;90.62;100164.59;5018812;28;20206;-72
2020/12/11 01:37:33;;;;;;;61.37;28.70;;;;;;;0.47;90.32;100165.97;5018864;28;20190;-74
2020/12/11 01:39:58;;;;;;;78.03;30.90;;;;;;;0.41;90.17;100163.13;5018910;28;20229;-71
2020/12/11 01:42:24;;;;;;;64.13;29.40;;;;;;;0.46;90.29;100159.09;5018717;28;20732;-75
2020/12/11 01:44:51;;;;;;;74.40;30.60;;;;;;;0.49;90.44;100158.34;5018628;28;20179;-72
2020/12/11 01:47:21;;;;;;;75.77;29.60;;;;;;;0.41;90.60;100155.44;5018941;28;20254;-72
2020/12/11 01:49:46;;;;;;;70.10;31.37;;;;;;;0.50;90.10;100143.00;5018454;28;20469;-71
2020/12/11 01:52:14;;;;;;;87.17;31.50;;;;;;;0.50;89.86;100144.66;5018591;28;20457;-71
2020/12/11 01:54:39;;;;;;;70.70;31.40;;;;;;;0.28;90.95;100150.63;5018794;28;20277;-71
2020/12/11 01:57:06;;;;;;;71.80;29.30;;;;;;;0.39;90.75;100141.66;5018352;28;20505;-70
2020/12/11 01:59:43;;;;;;;69.63;31.70;;;;;;;0.40;89.81;100137.44;5018268;28;20229;-73
2020/12/11 02:02:09;;;;;;;70.80;30.47;;;;;;;0.31;90.20;100136.25;5018366;28;20422;-72
2020/12/11 02:04:36;;;;;;;72.07;30.67;;;;;;;0.19;90.53;100135.75;5017414;28;20435;-77
2020/12/11 02:07:01;;;;;;;82.03;30.17;;;;;;;0.27;90.58;100129.25;5018059;28;20481;-71
2020/12/11 02:09:29;;;;;;;62.57;29.20;;;;;;;0.38;90.72;100139.03;5017886;28;20515;-71
2020/12/11 02:11:55;;;;;;;69.83;28.10;;;;;;;0.31;90.86;100125.09;5018194;28;20186;-69
2020/12/11 02:14:20;;;;;;;51.10;25.13;;;;;;;7.01;90.87;100090.03;5018514;28;20413;-73
2020/12/11 02:16:46;;;;;;;46.93;24.10;;;;;;;7.79;75.50;100090.13;5018153;28;20503;-73
2020/12/11 02:19:12;;;;;;;40.23;22.30;;;;;;;7.02;69.51;100086.63;5017946;28;20175;-76
2020/12/11 02:21:38;;;;;;;46.20;25.13;;;;;;;2.14;78.85;100118.19;5018417;28;20188;-71
2020/12/11 02:24:03;;;;;;;49.00;24.93;;;;;;;1.26;83.93;100112.56;5017719;28;20470;-71
2020/12/11 02:26:28;;;;;;;58.97;25.50;;;;;;;1.00;86.09;100112.44;5017943;28;20179;-72
2020/12/11 02:28:54;;;;;;;49.30;24.93;;;;;;;0.78;86.46;100109.88;5017926;28;20337;-70
2020/12/11 02:31:19;;;;;;;43.97;23.47;;;;;;;0.38;88.41;100103.16;5017696;28;20278;-71
2020/12/11 02:33:44;;;;;;;57.77;28.57;;;;;;;0.57;88.86;100108.22;5016911;28;20190;-71
2020/12/11 02:36:10;;;;;;;51.00;26.30;;;;;;;0.27;88.96;100087.34;5017979;28;20262;-70
2020/12/11 02:38:35;;;;;;;48.60;24.40;;;;;;;0.37;89.36;100086.91;5017467;28;20190;-71
2020/12/11 02:41:02;;;;;;;48.77;24.80;;;;;;;0.47;89.04;100080.44;5017475;28;20175;-71
2020/12/11 02:43:28;;;;;;;48.10;23.10;;;;;;;0.42;89.33;100076.81;5017891;28;20447;-71
2020/12/11 02:45:55;;;;;;;49.30;25.57;;;;;;;0.35;89.29;100088.50;5017577;28;20597;-72
2020/12/11 02:48:20;;;;;;;52.23;24.40;;;;;;;0.30;89.83;100075.53;5017207;28;20465;-72
2020/12/11 02:50:46;;;;;;;44.90;21.03;;;;;;;0.15;89.75;100085.16;5017632;28;20417;-72
2020/12/11 02:53:11;;;;;;;51.47;24.40;;;;;;;0.14;89.58;100083.41;5017279;28;20516;-71
2020/12/11 02:55:36;;;;;;;58.40;24.67;;;;;;;0.05;90.31;100088.16;5017201;28;20190;-73
2020/12/11 02:58:03;;;;;;;58.07;26.17;;;;;;;0.29;89.49;100084.03;5017592;28;20200;-71
2020/12/11 03:00:28;;;;;;;46.33;24.13;;;;;;;0.38;89.63;100083.53;5016366;28;20185;-72
2020/12/11 03:02:53;;;;;;;42.97;21.60;;;;;;;0.28;89.83;100077.13;5016398;28;20788;-72
2020/12/11 03:05:19;;;;;;;43.63;23.00;;;;;;;0.11;89.91;100078.13;5017558;28;20182;-71
2020/12/11 03:07:44;;;;;;;45.17;21.93;;;;;;;0.29;89.35;100068.63;5017058;28;20334;-74
2020/12/11 03:10:09;;;;;;;50.20;23.80;;;;;;;0.22;90.09;100064.09;5016969;28;20427;-71
2020/12/11 03:12:35;;;;;;;49.50;24.30;;;;;;;0.20;89.58;100068.25;5017511;28;20209;-72
2020/12/11 03:15:00;;;;;;;49.77;23.90;;;;;;;0.21;89.71;100062.34;5017072;28;20233;-74
2020/12/11 03:17:25;;;;;;;49.33;22.10;;;;;;;0.30;90.09;100055.00;5017166;28;20179;-72
2020/12/11 03:19:51;;;;;;;44.70;22.10;;;;;;;0.19;89.75;100056.28;5019846;28;20178;-71
2020/12/11 03:22:16;;;;;;;47.77;24.10;;;;;;;0.31;90.09;100051.66;5021349;28;20574;-70
2020/12/11 03:24:42;;;;;;;41.50;22.40;;;;;;;0.19;90.45;100063.97;5020970;28;20268;-70
2020/12/11 03:27:07;;;;;;;45.23;22.60;;;;;;;0.14;90.72;100050.94;5021572;28;20417;-69
2020/12/11 03:29:32;;;;;;;49.17;27.43;;;;;;;0.20;90.62;100052.03;5020898;28;20229;-74
2020/12/11 03:31:58;;;;;;;48.93;22.53;;;;;;;0.31;90.22;100040.50;5020978;28;20612;-72
2020/12/11 03:34:23;;;;;;;53.43;22.90;;;;;;;0.51;89.26;100036.16;5021415;28;20213;-71
2020/12/11 03:36:48;;;;;;;47.70;23.30;;;;;;;0.16;89.87;100033.97;5021613;28;20178;-71
2020/12/11 03:39:14;;;;;;;49.83;23.47;;;;;;;0.36;88.99;100025.31;5021083;28;20240;-75
2020/12/11 03:41:39;;;;;;;43.40;20.27;;;;;;;0.28;89.07;100025.88;5021267;28;20197;-76
2020/12/11 03:44:04;;;;;;;38.90;21.67;;;;;;;0.10;90.12;100032.84;5020834;28;20182;-69
2020/12/11 03:46:30;;;;;;;43.50;20.63;;;;;;;0.01;90.79;100029.91;5020937;28;20206;-71
2020/12/11 03:48:55;;;;;;;48.57;21.60;;;;;;;-0.01;90.88;100022.16;5020924;28;20203;-72
2020/12/11 03:51:24;;;;;;;47.30;22.60;;;;;;;0.01;91.43;100035.88;5020499;28;20253;-76
2020/12/11 03:53:49;;;;;;;51.27;22.40;;;;;;;0.17;90.33;100022.00;5020516;28;20202;-76
2020/12/11 03:56:15;;;;;;;46.07;22.43;;;;;;;0.16;90.70;100020.25;5020988;28;20449;-69
2020/12/11 03:58:41;;;;;;;50.83;21.77;;;;;;;-0.04;90.63;100028.03;5020228;28;20178;-73
2020/12/11 04:01:10;;;;;;;44.00;22.53;;;;;;;0.09;91.50;100023.41;5020511;28;20464;-72
2020/12/11 04:03:36;;;;;;;42.57;20.77;;;;;;;0.08;90.82;100017.41;5020716;28;20171;-72
2020/12/11 04:06:04;;;;;;;55.47;23.97;;;;;;;0.20;90.44;100005.88;5022562;28;20491;-70
2020/12/11 04:08:29;;;;;;;40.03;21.60;;;;;;;0.14;91.26;100011.66;5039627;28;20234;-70
2020/12/11 04:10:55;;;;;;;56.37;23.27;;;;;;;0.13;90.11;99994.50;5040217;28;20502;-70
2020/12/11 04:13:20;;;;;;;47.13;21.90;;;;;;;-0.06;91.34;100008.28;5039910;28;20179;-70
2020/12/11 04:15:45;;;;;;;44.17;21.03;;;;;;;-0.15;91.47;100008.75;5039842;28;20193;-70
2020/12/11 04:18:10;;;;;;;49.73;23.30;;;;;;;-0.07;91.71;100009.97;5040284;28;20170;-70
2020/12/11 04:20:36;;;;;;;41.83;20.60;;;;;;;-0.02;91.23;100003.31;5039778;28;20197;-70
2020/12/11 04:23:01;;;;;;;40.20;20.00;;;;;;;-0.16;91.41;99999.34;5039545;28;20210;-70
2020/12/11 04:25:26;;;;;;;47.23;22.83;;;;;;;0.10;90.48;100014.91;5031843;28;20257;-71
2020/12/11 04:27:52;;;;;;;40.07;20.90;;;;;;;0.12;90.22;99997.88;5019939;28;20199;-70
2020/12/11 04:30:17;;;;;;;39.60;22.03;;;;;;;0.31;90.14;99996.91;5019346;28;20490;-70
2020/12/11 04:32:42;;;;;;;39.47;20.40;;;;;;;0.40;89.77;99993.84;5020268;28;20433;-71
2020/12/11 04:35:08;;;;;;;41.43;20.67;;;;;;;0.33;88.92;100001.28;5019784;28;20258;-70
2020/12/11 04:37:33;;;;;;;41.50;21.20;;;;;;;0.19;89.78;99989.63;5019710;28;20174;-70
2020/12/11 04:39:58;;;;;;;41.83;21.27;;;;;;;0.19;90.40;99984.50;5019988;28;20428;-70
2020/12/11 04:42:24;;;;;;;36.80;19.67;;;;;;;0.36;90.18;99985.16;5019673;28;20471;-70
2020/12/11 04:44:50;;;;;;;40.70;21.07;;;;;;;0.55;89.07;99983.28;5018810;28;20203;-70
2020/12/11 04:47:18;;;;;;;37.10;21.53;;;;;;;0.25;88.92;99995.00;5019851;28;20257;-70
2020/12/11 04:49:43;;;;;;;39.17;20.80;;;;;;;0.29;89.60;99983.19;5018796;28;20823;-70
2020/12/11 04:52:12;;;;;;;37.97;20.83;;;;;;;0.28;89.81;99979.72;5018644;28;20444;-69
2020/12/11 04:54:38;;;;;;;37.93;19.83;;;;;;;0.17;89.22;99975.88;5019021;28;20190;-70
2020/12/11 04:57:08;;;;;;;38.37;21.83;;;;;;;0.33;89.77;99985.03;5019470;28;20418;-70
2020/12/11 04:59:33;;;;;;;36.13;20.07;;;;;;;0.38;88.93;99974.94;5019277;28;20853;-71
2020/12/11 05:02:00;;;;;;;33.37;18.97;;;;;;;0.21;89.29;99976.88;5019660;28;20456;-70
2020/12/11 05:04:25;;;;;;;41.10;22.30;;;;;;;0.44;88.90;99976.06;5019334;28;20183;-70
2020/12/11 05:06:51;;;;;;;38.70;20.83;;;;;;;0.30;89.40;99980.66;5019357;28;20426;-70
2020/12/11 05:09:18;;;;;;;43.80;21.50;;;;;;;0.29;89.81;99978.91;5019342;28;20210;-69
2020/12/11 05:11:45;;;;;;;31.33;17.73;;;;;;;0.08;89.54;99984.09;5019219;28;20262;-69
2020/12/11 05:14:24;;;;;;;41.60;20.73;;;;;;;0.20;89.79;99970.84;5019215;28;20414;-69
2020/12/11 05:16:58;;;;;;;39.60;21.60;;;;;;;0.22;89.82;99950.41;5021550;28;20663;-69
2020/12/11 05:19:23;;;;;;;31.77;18.17;;;;;;;0.03;90.02;99961.63;5032258;28;20421;-70
2020/12/11 05:21:48;;;;;;;40.03;22.17;;;;;;;0.18;89.80;99962.25;5038732;28;20416;-70
2020/12/11 05:24:14;;;;;;;39.40;21.33;;;;;;;0.17;89.90;99961.34;5032979;28;20845;-69
2020/12/11 05:26:39;;;;;;;38.57;21.80;;;;;;;0.41;89.55;99955.44;5019285;28;20179;-70
2020/12/11 05:29:04;;;;;;;34.53;18.37;;;;;;;-0.06;90.19;99952.78;5031556;28;20441;-69
2020/12/11 05:31:30;;;;;;;42.73;22.53;;;;;;;0.04;90.23;99950.56;5036859;28;20539;-69
2020/12/11 05:34:07;;;;;;;42.33;21.53;;;;;;;0.24;89.08;99959.03;5031948;28;20282;-70
2020/12/11 05:36:49;;;;;;;37.77;20.80;;;;;;;0.14;90.04;99951.00;5038351;28;20174;-70
2020/12/11 05:39:30;;;;;;;38.57;21.53;;;;;;;0.25;89.90;99941.16;5018300;28;20532;-70
2020/12/11 05:41:56;;;;;;;43.87;21.00;;;;;;;0.17;89.46;99951.09;5017387;28;20689;-70
2020/12/11 05:44:23;;;;;;;46.27;23.27;;;;;;;0.50;90.04;99940.41;5018102;28;20413;-70
2020/12/11 05:46:49;;;;;;;46.10;22.07;;;;;;;0.50;89.33;99940.41;5018363;28;20428;-70
2020/12/11 05:49:30;;;;;;;41.87;22.40;;;;;;;0.53;89.22;99936.19;5018199;28;20571;-69
2020/12/11 05:52:13;;;;;;;41.13;22.60;;;;;;;0.39;88.92;99938.25;5016733;28;20607;-69
2020/12/11 05:54:49;;;;;;;38.60;21.20;;;;;;;0.56;89.25;99929.50;5016887;28;20417;-70
2020/12/11 05:57:16;;;;;;;42.60;20.80;;;;;;;0.54;88.57;99931.09;5016534;28;20476;-70
2020/12/11 05:59:43;;;;;;;46.73;21.87;;;;;;;0.54;89.43;99927.69;5016316;28;20737;-69
2020/12/11 06:02:11;;;;;;;43.10;22.10;;;;;;;0.43;89.18;99933.28;5016301;28;20420;-70
2020/12/11 06:04:37;;;;;;;39.70;21.23;;;;;;;0.50;89.10;99935.28;5016561;28;20414;-69
2020/12/11 06:07:09;;;;;;;42.10;20.90;;;;;;;0.31;88.77;99938.84;5018213;28;20414;-70
2020/12/11 06:09:36;;;;;;;45.30;22.60;;;;;;;0.41;89.27;99944.31;5017962;28;20543;-70
2020/12/11 06:12:03;;;;;;;40.50;22.90;;;;;;;0.30;90.08;99938.78;5018026;28;20500;-70
2020/12/11 06:14:50;;;;;;;40.13;21.00;;;;;;;0.22;90.00;99938.47;5017884;28;20422;-69
2020/12/11 06:17:18;;;;;;;47.93;22.43;;;;;;;0.15;89.85;99957.03;5017967;28;20486;-70
2020/12/11 06:19:44;;;;;;;42.73;20.50;;;;;;;0.33;90.28;99941.47;5016870;28;20497;-69
2020/12/11 06:22:10;;;;;;;40.53;21.10;;;;;;;0.31;89.58;99932.81;5017866;28;20418;-70
2020/12/11 06:24:35;;;;;;;43.53;23.47;;;;;;;0.28;90.10;99937.84;5017777;28;20503;-70
2020/12/11 06:27:02;;;;;;;41.87;21.87;;;;;;;0.32;89.98;99930.31;5017761;28;20278;-69
2020/12/11 06:29:30;;;;;;;43.87;23.50;;;;;;;0.52;89.30;99935.31;5017705;28;20213;-68
2020/12/11 06:31:56;;;;;;;46.17;23.13;;;;;;;0.19;89.78;99928.13;5017424;28;20440;-69
2020/12/11 06:34:22;;;;;;;43.27;23.33;;;;;;;0.52;89.53;99932.75;5017407;28;20465;-69
2020/12/11 06:36:49;;;;;;;43.13;21.20;;;;;;;0.37;90.04;99927.06;5017988;28;20175;-69
2020/12/11 06:39:38;;;;;;;44.87;23.33;;;;;;;0.50;89.00;99937.84;5017482;28;20418;-70
2020/12/11 06:42:03;;;;;;;41.67;23.10;;;;;;;0.32;90.22;99932.00;5019695;28;20481;-69
2020/12/11 06:44:30;;;;;;;47.10;22.93;;;;;;;0.24;90.71;99935.97;5017417;28;20434;-68
2020/12/11 06:47:03;;;;;;;51.23;25.73;;;;;;;0.42;90.26;99934.13;5017429;28;20189;-70
2020/12/11 06:49:28;;;;;;;45.37;21.97;;;;;;;0.39;90.49;99933.13;5017446;28;20465;-68
2020/12/11 06:51:53;;;;;;;45.90;21.47;;;;;;;0.37;90.45;99935.63;5017475;28;20444;-69
2020/12/11 06:54:22;;;;;;;48.30;24.33;;;;;;;0.67;89.46;99935.88;5017183;28;20206;-69
2020/12/11 06:57:00;;;;;;;47.70;23.77;;;;;;;0.46;89.63;99924.81;5017657;28;20221;-70
2020/12/11 06:59:32;;;;;;;53.63;23.67;;;;;;;0.53;90.52;99928.50;5017192;28;20894;-69
2020/12/11 07:02:04;;;;;;;46.90;23.77;;;;;;;0.54;89.82;99930.25;5017444;28;20501;-70
2020/12/11 07:04:37;;;;;;;50.37;24.20;;;;;;;0.32;89.31;99929.44;5017362;28;20740;-70
2020/12/11 07:07:03;;;;;;;47.93;24.33;;;;;;;0.71;89.22;99923.19;5017096;28;20413;-70
2020/12/11 07:09:28;;;;;;;46.33;23.83;;;;;;;0.85;88.83;99916.84;5016799;28;20471;-70
2020/12/11 07:11:56;;;;;;;47.40;22.27;;;;;;;0.71;89.39;99923.19;5017032;28;20171;-69
2020/12/11 07:14:25;;;;;;;52.33;25.23;;;;;;;0.66;89.06;99915.31;5017488;28;20548;-68
2020/12/11 07:16:51;;;;;;;55.23;24.67;;;;;;;0.71;89.53;99907.78;5017155;28;20417;-70
2020/12/11 07:19:16;;;;;;;55.83;24.33;;;;;;;0.55;89.64;99898.66;5016963;28;20460;-70
2020/12/11 07:21:42;;;;;;;59.23;24.73;;;;;;;0.48;90.42;99902.69;5017289;28;20407;-69
2020/12/11 07:24:08;;;;;;;56.33;25.77;;;;;;;0.27;90.09;99900.19;5016061;28;20215;-69
2020/12/11 07:26:33;;;;;;;51.10;25.30;;;;;;;0.43;89.65;99896.50;5017001;28;20508;-70
2020/12/11 07:29:06;;;;;;;51.57;24.67;;;;;;;0.76;89.42;99894.31;5017068;28;20230;-70
2020/12/11 07:31:41;;;;;;;48.93;24.60;;;;;;;0.26;89.68;99898.47;5016845;28;20175;-70
2020/12/11 07:34:22;;;;;;;51.93;23.60;;;;;;;0.24;90.26;99893.25;5016940;28;20429;-70
2020/12/11 07:36:54;;;;;;;46.67;21.17;;;;;;;0.08;91.09;99891.84;5016074;28;20421;-69
2020/12/11 07:39:21;;;;;;;49.20;24.20;;;;;;;0.22;90.71;99883.75;5016789;28;20449;-70
2020/12/11 07:41:47;;;;;;;55.60;24.70;;;;;;;0.32;90.42;99884.16;5016800;28;20862;-69
2020/12/11 07:44:36;;;;;;;54.40;28.13;;;;;;;0.44;89.76;99873.50;5016739;28;20453;-69
2020/12/11 07:47:05;;;;;;;58.13;27.63;;;;;;;0.75;89.75;99874.59;5016676;28;20425;-69
2020/12/11 07:49:45;;;;;;;54.27;25.87;;;;;;;0.55;89.56;99876.44;5016518;28;20473;-70
2020/12/11 07:52:11;;;;;;;71.00;28.30;;;;;;;0.63;89.77;99875.03;5015845;28;20692;-70
2020/12/11 07:54:38;;;;;;;59.87;28.70;;;;;;;0.39;90.03;99875.00;5016753;28;20421;-69
2020/12/11 07:57:24;;;;;;;65.53;26.33;;;;;;;0.21;90.98;99869.22;5016672;28;20410;-69
2020/12/11 08:00:00;;;;;;;58.43;27.70;;;;;;;0.55;90.39;99866.19;5016680;28;20722;-70
2020/12/11 08:02:26;;;;;;;64.53;25.87;;;;;;;0.28;90.32;99861.78;5016132;28;20508;-69
2020/12/11 08:04:52;;;;;;;55.57;28.30;;;;;;;0.69;89.69;99868.38;5016852;28;20548;-70
2020/12/11 08:07:31;;;;;;;77.13;27.47;;;;;;;0.36;89.99;99884.28;5019686;28;20512;-69
2020/12/11 08:10:46;;;;;;;67.20;29.33;;;;;;;0.65;89.83;99886.22;5020333;28;20274;-70
2020/12/11 08:13:16;;;;;;;54.80;28.60;;;;;;;0.72;89.70;99858.22;5021159;28;20471;-69
2020/12/11 08:15:43;;;;;;;64.47;29.17;;;;;;;0.21;90.63;99858.97;5020346;28;20811;-70
2020/12/11 08:18:19;;;;;;;74.07;29.03;;;;;;;0.35;91.14;99862.03;5019486;28;20444;-71
2020/12/11 08:20:50;;;;;;;65.23;28.57;;;;;;;0.65;90.03;99859.69;5020127;28;20463;-70
2020/12/11 08:23:26;;;;;;;61.27;27.90;;;;;;;0.63;90.11;99851.94;5019917;28;20417;-70
2020/12/11 08:26:15;;;;;;;62.67;27.50;;;;;;;0.57;89.63;99843.16;5020080;28;20764;-69
2020/12/11 08:28:42;;;;;;;63.93;29.00;;;;;;;0.55;90.30;99844.81;5019904;28;20465;-70
2020/12/11 08:31:12;;;;;;;67.43;28.60;;;;;;;0.46;90.40;99846.22;5020096;28;20425;-69
2020/12/11 08:33:37;;;;;;;67.10;27.57;;;;;;;0.53;90.04;99842.19;5019362;28;20430;-70
2020/12/11 08:36:03;;;;;;;64.67;28.70;;;;;;;0.66;89.49;99839.25;5019760;28;20428;-69
2020/12/11 08:38:28;;;;;;;65.37;28.90;;;;;;;0.70;90.26;99829.94;5020137;28;20178;-68
2020/12/11 08:40:53;;;;;;;74.10;32.50;;;;;;;0.77;89.35;99826.78;5019907;28;20452;-70
2020/12/11 08:51:23;;;;;;;67.43;27.87;;;;;;;0.50;90.51;99821.53;5019712;28;20542;-70
2020/12/11 08:53:51;;;;;;;61.00;28.53;;;;;;;0.51;90.04;99818.16;5019630;28;20758;-70
2020/12/11 08:56:16;;;;;;;78.40;30.60;;;;;;;0.23;90.90;99824.91;5019578;28;20551;-70
2020/12/11 08:58:41;;;;;;;68.17;30.50;;;;;;;0.33;90.90;99814.13;5019907;28;20401;-70
2020/12/11 09:01:07;;;;;;;78.33;30.80;;;;;;;0.26;91.51;99816.44;5019679;28;20171;-69
2020/12/11 09:03:32;;;;;;;71.70;28.80;;;;;;;0.24;90.89;99821.47;5019575;28;20189;-70
2020/12/11 09:05:57;;;;;;;64.93;27.57;;;;;;;0.15;91.22;99827.16;5019900;28;20175;-69
2020/12/11 09:08:23;;;;;;;64.63;28.63;;;;;;;0.31;91.34;99831.16;5019188;28;20556;-70
2020/12/11 09:10:48;;;;;;;67.80;30.60;;;;;;;0.48;91.44;99821.50;5019323;28;20177;-68
2020/12/11 09:13:13;;;;;;;77.73;29.30;;;;;;;0.22;91.27;99820.56;5019575;28;20250;-69
2020/12/11 09:15:38;;;;;;;62.00;28.40;;;;;;;0.50;90.62;99811.28;5018880;28;20424;-70
2020/12/11 09:18:04;;;;;;;65.83;28.53;;;;;;;0.58;90.21;99812.47;5018201;28;20205;-69
2020/12/11 09:20:29;;;;;;;68.83;26.87;;;;;;;0.33;90.60;99819.25;5019407;28;20179;-70
2020/12/11 09:22:55;;;;;;;55.70;28.47;;;;;;;0.58;89.98;99806.44;5018963;28;20187;-69
2020/12/11 09:25:20;;;;;;;62.37;29.20;;;;;;;0.43;90.42;99793.94;5018816;28;20235;-69
2020/12/11 09:27:46;;;;;;;65.20;29.80;;;;;;;0.51;90.03;99797.66;5019215;28;20520;-70
2020/12/11 09:32:54;;;;;;;51.87;25.07;;;;;;;0.39;90.49;99792.09;5018918;28;20175;-70
2020/12/11 09:35:20;;;;;;;58.97;28.47;;;;;;;0.60;90.31;99787.72;5018761;28;20435;-70
2020/12/11 09:37:49;;;;;;;67.37;28.93;;;;;;;0.76;90.35;99783.09;5018729;28;20426;-70
2020/12/11 09:40:16;;;;;;;64.87;28.77;;;;;;;0.61;89.61;99775.75;5018997;28;20194;-70
2020/12/11 09:45:22;;;;;;;65.83;27.13;;;;;;;0.73;88.94;99777.88;5018670;28;20826;-69
2020/12/11 09:55:15;;;;;;;70.70;27.87;;;;;;;0.70;89.76;99765.81;5018584;28;20465;-70
2020/12/11 09:57:41;;;;;;;56.27;26.67;;;;;;;0.75;89.08;99782.22;5018486;28;20250;-69
2020/12/11 10:00:07;;;;;;;52.03;24.53;;;;;;;0.90;88.75;99781.00;5017915;28;20246;-69
2020/12/11 10:02:53;;;;;;;46.73;23.67;;;;;;;0.64;88.84;99779.31;5018038;28;20194;-70
2020/12/11 10:05:19;;;;;;;55.13;27.53;;;;;;;0.65;89.41;99791.31;5018069;28;20406;-70
2020/12/11 10:07:44;;;;;;;51.67;25.90;;;;;;;0.79;88.35;99784.09;5018089;28;20467;-70
2020/12/11 10:10:09;;;;;;;63.37;27.83;;;;;;;0.96;88.57;99776.06;5018011;28;20167;-69
2020/12/11 10:12:35;;;;;;;61.00;28.57;;;;;;;0.85;88.22;99783.41;5018196;28;20242;-70
2020/12/11 10:15:06;;;;;;;56.70;26.17;;;;;;;0.80;88.43;99784.97;5018284;28;20179;-69
2020/12/11 10:17:32;;;;;;;59.53;27.00;;;;;;;0.64;88.50;99784.44;5017986;28;20424;-70
2020/12/11 10:19:57;;;;;;;59.30;27.50;;;;;;;0.83;89.06;99777.38;5017039;28;20525;-69
2020/12/11 10:22:22;;;;;;;54.37;26.53;;;;;;;0.97;88.50;99765.84;5018384;28;20194;-69
2020/12/11 10:24:48;;;;;;;59.40;28.90;;;;;;;1.04;87.86;99774.63;5017624;28;20230;-69
2020/12/11 10:27:13;;;;;;;53.00;25.03;;;;;;;0.89;87.45;99758.72;5017551;28;20202;-70
2020/12/11 10:29:39;;;;;;;55.33;26.77;;;;;;;0.76;88.21;99767.69;5017699;28;20437;-68
2020/12/11 10:32:05;;;;;;;56.10;26.83;;;;;;;0.86;88.09;99744.09;5017500;28;20182;-70
2020/12/11 10:34:30;;;;;;;57.27;28.47;;;;;;;0.94;87.91;99752.91;5017547;28;20185;-69
2020/12/11 10:36:55;;;;;;;38.47;21.40;;;;;;;0.72;88.33;99753.03;5018031;28;20476;-69
2020/12/11 10:39:21;;;;;;;64.13;29.03;;;;;;;0.91;89.00;99742.56;5017397;28;20163;-69
2020/12/11 10:41:46;;;;;;;56.50;26.37;;;;;;;0.98;87.96;99741.94;5017452;28;20193;-70
2020/12/11 10:44:11;;;;;;;52.20;27.80;;;;;;;1.18;87.11;99737.44;5017704;28;20174;-69
2020/12/11 10:46:37;;;;;;;56.00;27.80;;;;;;;1.28;87.04;99737.72;5017452;28;20171;-70
2020/12/11 10:49:02;;;;;;;52.30;26.10;;;;;;;1.10;86.69;99732.91;5017220;28;20489;-70
2020/12/11 10:51:27;;;;;;;53.33;26.10;;;;;;;1.17;87.17;99727.13;5017530;28;20190;-70
2020/12/11 10:53:52;;;;;;;49.90;24.90;;;;;;;0.81;87.45;99730.25;5017261;28;20242;-70
2020/12/11 10:56:19;;;;;;;57.47;27.00;;;;;;;1.14;87.25;99719.34;5017270;28;20167;-71
2020/12/11 10:58:45;;;;;;;50.90;25.87;;;;;;;1.02;87.00;99713.81;5017369;28;20171;-70
2020/12/11 11:01:11;;;;;;;49.90;26.33;;;;;;;1.15;86.51;99714.25;5017178;28;20430;-70
2020/12/11 11:03:37;;;;;;;52.33;25.17;;;;;;;0.93;87.43;99699.84;5017296;28;20428;-70
2020/12/11 11:06:19;;;;;;;53.30;25.97;;;;;;;0.79;87.88;99707.13;5017474;28;20252;-70
2020/12/11 11:09:00;;;;;;;52.63;25.27;;;;;;;1.04;87.30;99717.28;5017000;28;20472;-71
2020/12/11 11:11:32;;;;;;;57.30;25.50;;;;;;;1.14;87.09;99701.38;5017140;28;20418;-69
2020/12/11 11:16:48;;;;;;;50.23;26.57;;;;;;;1.18;86.64;99698.06;5017200;28;20854;-69
2020/12/11 11:19:23;;;;;;;57.27;26.70;;;;;;;1.20;86.76;99692.97;5016329;28;20409;-69
2020/12/11 11:24:48;;;;;;;58.47;27.13;;;;;;;0.88;87.18;99690.25;5017134;28;20552;-70
2020/12/11 11:27:33;;;;;;;53.20;24.93;;;;;;;1.06;87.69;99688.28;5017037;28;20416;-69
2020/12/11 11:29:59;;;;;;;62.67;26.73;;;;;;;1.19;86.16;99674.13;5016747;28;20410;-69
2020/12/11 11:32:25;;;;;;;52.43;26.20;;;;;;;1.38;85.78;99682.38;5017159;28;20435;-69
2020/12/11 11:34:51;;;;;;;56.57;27.40;;;;;;;1.38;85.59;99666.97;5016966;28;20171;-69
2020/12/11 11:37:16;;;;;;;66.83;25.00;;;;;;;1.19;85.87;99674.13;5017079;28;20453;-69
2020/12/11 11:39:41;;;;;;;56.80;26.60;;;;;;;1.06;86.84;99684.84;5017638;28;20174;-71
2020/12/11 11:42:07;;;;;;;49.17;25.03;;;;;;;1.00;87.67;99663.31;5020911;28;20441;-70
2020/12/11 11:44:46;;;;;;;60.70;27.93;;;;;;;1.05;86.37;99677.97;5021024;28;20202;-70
2020/12/11 11:47:11;;;;;;;50.73;26.00;;;;;;;0.75;87.04;99671.06;5020704;28;20179;-71
2020/12/11 11:49:55;;;;;;;50.53;25.67;;;;;;;0.97;86.24;99664.91;5020599;28;20473;-70